sensor_id;sensor_type;location;lat;lon;timestamp;P1;durP1;ratioP1;P2;durP2;ratioP2
67272;SDS011;54190;49.770;9.250;2022-11-27T00:01:47;13.10;;;6.30;;
67272;SDS011;54190;49.770;9.250;2022-11-27T00:04:13;10.90;;;6.67;;
67272;SDS011;54190;49.770;9.250;2022-11-27T00:06:39;15.10;;;7.50;;
67272;SDS011;54190;49.770;9.250;2022-11-27T00:09:06;11.00;;;6.80;;
67272;SDS011;54190;49.770;9.250;2022-11-27T00:11:34;13.40;;;7.63;;
67272;SDS011;54190;49.770;9.250;2022-11-27T00:14:03;10.17;;;7.00;;
67272;SDS011;54190;49.770;9.250;2022-11-27T00:16:29;12.13;;;7.53;;
67272;SDS011;54190;49.770;9.250;2022-11-27T00:18:55;15.13;;;7.50;;
67272;SDS011;54190;49.770;9.250;2022-11-27T00:21:22;15.00;;;9.33;;
67272;SDS011;54190;49.770;9.250;2022-11-27T00:23:50;16.60;;;8.07;;
67272;SDS011;54190;49.770;9.250;2022-11-27T00:26:17;12.90;;;8.63;;
67272;SDS011;54190;49.770;9.250;2022-11-27T00:28:44;12.50;;;8.07;;
67272;SDS011;54190;49.770;9.250;2022-11-27T00:31:14;15.83;;;9.60;;
67272;SDS011;54190;49.770;9.250;2022-11-27T00:33:41;12.63;;;8.23;;
67272;SDS011;54190;49.770;9.250;2022-11-27T00:36:07;14.77;;;9.33;;
67272;SDS011;54190;49.770;9.250;2022-11-27T00:38:34;14.70;;;8.50;;
67272;SDS011;54190;49.770;9.250;2022-11-27T00:41:22;14.70;;;8.83;;
67272;SDS011;54190;49.770;9.250;2022-11-27T00:43:47;11.40;;;7.97;;
67272;SDS011;54190;49.770;9.250;2022-11-27T00:46:14;14.93;;;9.30;;
67272;SDS011;54190;49.770;9.250;2022-11-27T00:48:41;18.83;;;9.67;;
67272;SDS011;54190;49.770;9.250;2022-11-27T00:51:08;15.17;;;9.07;;
67272;SDS011;54190;49.770;9.250;2022-11-27T00:53:40;13.80;;;9.40;;
67272;SDS011;54190;49.770;9.250;2022-11-27T00:56:06;18.30;;;9.40;;
67272;SDS011;54190;49.770;9.250;2022-11-27T00:58:32;14.23;;;9.30;;
67272;SDS011;54190;49.770;9.250;2022-11-27T01:00:59;15.90;;;9.00;;
67272;SDS011;54190;49.770;9.250;2022-11-27T01:03:27;16.50;;;8.77;;
67272;SDS011;54190;49.770;9.250;2022-11-27T01:05:53;17.20;;;8.27;;
67272;SDS011;54190;49.770;9.250;2022-11-27T01:08:19;12.40;;;8.37;;
67272;SDS011;54190;49.770;9.250;2022-11-27T01:10:53;15.33;;;8.60;;
67272;SDS011;54190;49.770;9.250;2022-11-27T01:13:24;13.67;;;8.87;;
67272;SDS011;54190;49.770;9.250;2022-11-27T01:15:58;13.50;;;8.53;;
67272;SDS011;54190;49.770;9.250;2022-11-27T01:18:29;22.23;;;9.30;;
67272;SDS011;54190;49.770;9.250;2022-11-27T01:20:54;18.93;;;10.47;;
67272;SDS011;54190;49.770;9.250;2022-11-27T01:23:21;16.83;;;10.30;;
67272;SDS011;54190;49.770;9.250;2022-11-27T01:25:47;18.60;;;10.27;;
67272;SDS011;54190;49.770;9.250;2022-11-27T01:28:13;17.90;;;10.90;;
67272;SDS011;54190;49.770;9.250;2022-11-27T01:30:40;19.77;;;9.50;;
67272;SDS011;54190;49.770;9.250;2022-11-27T01:33:06;12.77;;;8.30;;
67272;SDS011;54190;49.770;9.250;2022-11-27T01:35:32;16.50;;;9.33;;
67272;SDS011;54190;49.770;9.250;2022-11-27T01:37:57;15.40;;;9.63;;
67272;SDS011;54190;49.770;9.250;2022-11-27T01:40:23;17.50;;;10.30;;
67272;SDS011;54190;49.770;9.250;2022-11-27T01:42:49;15.63;;;9.80;;
67272;SDS011;54190;49.770;9.250;2022-11-27T01:45:16;15.97;;;10.23;;
67272;SDS011;54190;49.770;9.250;2022-11-27T01:47:54;15.30;;;9.53;;
67272;SDS011;54190;49.770;9.250;2022-11-27T01:50:24;16.50;;;10.37;;
67272;SDS011;54190;49.770;9.250;2022-11-27T01:53:16;17.10;;;9.70;;
67272;SDS011;54190;49.770;9.250;2022-11-27T01:55:44;15.70;;;9.97;;
67272;SDS011;54190;49.770;9.250;2022-11-27T01:58:21;18.33;;;8.70;;
67272;SDS011;54190;49.770;9.250;2022-11-27T02:00:50;13.43;;;9.00;;
67272;SDS011;54190;49.770;9.250;2022-11-27T02:03:16;13.93;;;8.90;;
67272;SDS011;54190;49.770;9.250;2022-11-27T02:05:42;16.10;;;8.97;;
67272;SDS011;54190;49.770;9.250;2022-11-27T02:08:09;17.27;;;9.87;;
67272;SDS011;54190;49.770;9.250;2022-11-27T02:10:40;14.87;;;9.20;;
67272;SDS011;54190;49.770;9.250;2022-11-27T02:13:16;15.67;;;9.07;;
67272;SDS011;54190;49.770;9.250;2022-11-27T02:18:56;17.43;;;10.43;;
67272;SDS011;54190;49.770;9.250;2022-11-27T02:21:42;18.47;;;10.30;;
67272;SDS011;54190;49.770;9.250;2022-11-27T02:24:28;16.20;;;10.00;;
67272;SDS011;54190;49.770;9.250;2022-11-27T02:30:15;14.63;;;9.43;;
67272;SDS011;54190;49.770;9.250;2022-11-27T02:38:09;14.67;;;8.40;;
67272;SDS011;54190;49.770;9.250;2022-11-27T02:43:21;17.50;;;9.20;;
67272;SDS011;54190;49.770;9.250;2022-11-27T02:45:54;14.30;;;7.80;;
67272;SDS011;54190;49.770;9.250;2022-11-27T02:48:23;16.67;;;7.97;;
67272;SDS011;54190;49.770;9.250;2022-11-27T02:50:56;13.00;;;8.27;;
67272;SDS011;54190;49.770;9.250;2022-11-27T02:53:24;12.20;;;8.00;;
67272;SDS011;54190;49.770;9.250;2022-11-27T02:55:54;14.40;;;8.50;;
67272;SDS011;54190;49.770;9.250;2022-11-27T02:58:23;36.70;;;8.40;;
67272;SDS011;54190;49.770;9.250;2022-11-27T03:00:52;53.00;;;9.60;;
67272;SDS011;54190;49.770;9.250;2022-11-27T03:03:20;18.00;;;7.90;;
67272;SDS011;54190;49.770;9.250;2022-11-27T03:05:51;44.00;;;10.00;;
67272;SDS011;54190;49.770;9.250;2022-11-27T03:13:36;25.93;;;8.70;;
67272;SDS011;54190;49.770;9.250;2022-11-27T03:21:33;35.13;;;11.80;;
67272;SDS011;54190;49.770;9.250;2022-11-27T03:24:03;16.77;;;10.13;;
67272;SDS011;54190;49.770;9.250;2022-11-27T03:26:30;34.40;;;10.53;;
67272;SDS011;54190;49.770;9.250;2022-11-27T03:28:56;16.67;;;9.30;;
67272;SDS011;54190;49.770;9.250;2022-11-27T03:31:23;30.30;;;10.33;;
67272;SDS011;54190;49.770;9.250;2022-11-27T03:33:49;16.67;;;10.40;;
67272;SDS011;54190;49.770;9.250;2022-11-27T03:36:17;17.10;;;11.17;;
67272;SDS011;54190;49.770;9.250;2022-11-27T03:38:44;38.53;;;13.43;;
67272;SDS011;54190;49.770;9.250;2022-11-27T03:41:23;22.60;;;10.97;;
67272;SDS011;54190;49.770;9.250;2022-11-27T03:44:12;22.93;;;11.53;;
67272;SDS011;54190;49.770;9.250;2022-11-27T03:55:19;23.23;;;9.47;;
67272;SDS011;54190;49.770;9.250;2022-11-27T04:00:26;20.33;;;9.27;;
67272;SDS011;54190;49.770;9.250;2022-11-27T04:02:58;12.80;;;8.20;;
67272;SDS011;54190;49.770;9.250;2022-11-27T04:05:23;19.80;;;9.13;;
67272;SDS011;54190;49.770;9.250;2022-11-27T04:07:49;24.60;;;10.40;;
67272;SDS011;54190;49.770;9.250;2022-11-27T04:10:15;64.10;;;11.80;;
67272;SDS011;54190;49.770;9.250;2022-11-27T04:12:41;19.67;;;9.23;;
67272;SDS011;54190;49.770;9.250;2022-11-27T04:15:07;15.33;;;8.60;;
67272;SDS011;54190;49.770;9.250;2022-11-27T04:17:33;28.80;;;8.40;;
67272;SDS011;54190;49.770;9.250;2022-11-27T04:19:59;19.70;;;7.30;;
67272;SDS011;54190;49.770;9.250;2022-11-27T04:22:25;12.13;;;8.23;;
67272;SDS011;54190;49.770;9.250;2022-11-27T04:24:51;13.13;;;7.83;;
67272;SDS011;54190;49.770;9.250;2022-11-27T04:27:16;12.70;;;7.90;;
67272;SDS011;54190;49.770;9.250;2022-11-27T04:29:42;19.20;;;8.10;;
67272;SDS011;54190;49.770;9.250;2022-11-27T04:32:08;12.93;;;8.40;;
67272;SDS011;54190;49.770;9.250;2022-11-27T04:34:34;30.30;;;8.87;;
67272;SDS011;54190;49.770;9.250;2022-11-27T04:36:59;51.67;;;9.87;;
67272;SDS011;54190;49.770;9.250;2022-11-27T04:39:25;49.30;;;8.20;;
67272;SDS011;54190;49.770;9.250;2022-11-27T04:41:51;36.40;;;9.00;;
67272;SDS011;54190;49.770;9.250;2022-11-27T04:44:17;60.57;;;9.83;;
67272;SDS011;54190;49.770;9.250;2022-11-27T04:46:42;14.27;;;7.60;;
67272;SDS011;54190;49.770;9.250;2022-11-27T04:49:09;55.70;;;8.20;;
67272;SDS011;54190;49.770;9.250;2022-11-27T04:51:35;15.20;;;8.20;;
67272;SDS011;54190;49.770;9.250;2022-11-27T04:54:01;16.17;;;7.63;;
67272;SDS011;54190;49.770;9.250;2022-11-27T04:56:27;25.80;;;7.83;;
67272;SDS011;54190;49.770;9.250;2022-11-27T04:58:52;21.53;;;9.43;;
67272;SDS011;54190;49.770;9.250;2022-11-27T05:01:18;20.03;;;8.50;;
67272;SDS011;54190;49.770;9.250;2022-11-27T05:03:45;13.47;;;7.93;;
67272;SDS011;54190;49.770;9.250;2022-11-27T05:06:12;15.37;;;7.70;;
67272;SDS011;54190;49.770;9.250;2022-11-27T05:08:37;14.90;;;8.27;;
67272;SDS011;54190;49.770;9.250;2022-11-27T05:11:07;11.40;;;7.20;;
67272;SDS011;54190;49.770;9.250;2022-11-27T05:13:37;13.70;;;7.90;;
67272;SDS011;54190;49.770;9.250;2022-11-27T05:16:03;11.70;;;6.90;;
67272;SDS011;54190;49.770;9.250;2022-11-27T05:18:29;13.70;;;8.53;;
67272;SDS011;54190;49.770;9.250;2022-11-27T05:20:59;16.80;;;8.20;;
67272;SDS011;54190;49.770;9.250;2022-11-27T05:23:27;16.40;;;8.90;;
67272;SDS011;54190;49.770;9.250;2022-11-27T05:25:53;12.50;;;7.80;;
67272;SDS011;54190;49.770;9.250;2022-11-27T05:28:19;12.83;;;7.70;;
67272;SDS011;54190;49.770;9.250;2022-11-27T05:30:46;12.43;;;7.90;;
67272;SDS011;54190;49.770;9.250;2022-11-27T05:33:12;13.47;;;8.17;;
67272;SDS011;54190;49.770;9.250;2022-11-27T05:35:39;12.10;;;7.13;;
67272;SDS011;54190;49.770;9.250;2022-11-27T05:38:05;11.63;;;7.40;;
67272;SDS011;54190;49.770;9.250;2022-11-27T05:40:30;11.30;;;7.67;;
67272;SDS011;54190;49.770;9.250;2022-11-27T05:42:56;10.33;;;6.90;;
67272;SDS011;54190;49.770;9.250;2022-11-27T05:45:22;12.80;;;7.97;;
67272;SDS011;54190;49.770;9.250;2022-11-27T05:47:47;14.30;;;7.20;;
67272;SDS011;54190;49.770;9.250;2022-11-27T05:50:13;15.47;;;8.43;;
67272;SDS011;54190;49.770;9.250;2022-11-27T05:52:39;14.40;;;7.70;;
67272;SDS011;54190;49.770;9.250;2022-11-27T05:55:04;15.17;;;9.00;;
67272;SDS011;54190;49.770;9.250;2022-11-27T05:57:30;14.70;;;8.43;;
67272;SDS011;54190;49.770;9.250;2022-11-27T05:59:56;13.37;;;8.10;;
67272;SDS011;54190;49.770;9.250;2022-11-27T06:02:23;14.00;;;8.00;;
67272;SDS011;54190;49.770;9.250;2022-11-27T06:04:49;15.57;;;8.07;;
67272;SDS011;54190;49.770;9.250;2022-11-27T06:07:15;14.43;;;7.70;;
67272;SDS011;54190;49.770;9.250;2022-11-27T06:09:41;13.10;;;7.67;;
67272;SDS011;54190;49.770;9.250;2022-11-27T06:12:06;15.80;;;9.03;;
67272;SDS011;54190;49.770;9.250;2022-11-27T06:14:32;11.83;;;7.07;;
67272;SDS011;54190;49.770;9.250;2022-11-27T06:17:02;14.33;;;7.33;;
67272;SDS011;54190;49.770;9.250;2022-11-27T06:19:28;13.10;;;8.17;;
67272;SDS011;54190;49.770;9.250;2022-11-27T06:21:54;13.50;;;8.27;;
67272;SDS011;54190;49.770;9.250;2022-11-27T06:24:20;16.20;;;8.37;;
67272;SDS011;54190;49.770;9.250;2022-11-27T06:26:46;14.03;;;8.30;;
67272;SDS011;54190;49.770;9.250;2022-11-27T06:29:11;13.63;;;8.50;;
67272;SDS011;54190;49.770;9.250;2022-11-27T06:31:37;14.30;;;8.47;;
67272;SDS011;54190;49.770;9.250;2022-11-27T06:34:03;11.93;;;7.13;;
67272;SDS011;54190;49.770;9.250;2022-11-27T06:36:34;12.13;;;7.20;;
67272;SDS011;54190;49.770;9.250;2022-11-27T06:39:02;15.20;;;7.70;;
67272;SDS011;54190;49.770;9.250;2022-11-27T06:41:29;15.80;;;8.40;;
67272;SDS011;54190;49.770;9.250;2022-11-27T06:43:56;13.60;;;7.30;;
67272;SDS011;54190;49.770;9.250;2022-11-27T06:46:23;15.30;;;7.50;;
67272;SDS011;54190;49.770;9.250;2022-11-27T06:48:51;16.83;;;8.50;;
67272;SDS011;54190;49.770;9.250;2022-11-27T06:51:21;13.87;;;8.40;;
67272;SDS011;54190;49.770;9.250;2022-11-27T06:53:49;13.60;;;7.87;;
67272;SDS011;54190;49.770;9.250;2022-11-27T06:56:16;14.87;;;8.53;;
67272;SDS011;54190;49.770;9.250;2022-11-27T06:58:43;13.40;;;8.13;;
67272;SDS011;54190;49.770;9.250;2022-11-27T07:01:13;11.80;;;6.83;;
67272;SDS011;54190;49.770;9.250;2022-11-27T07:03:40;14.00;;;8.60;;
67272;SDS011;54190;49.770;9.250;2022-11-27T07:06:07;12.87;;;8.03;;
67272;SDS011;54190;49.770;9.250;2022-11-27T07:08:34;13.00;;;7.10;;
67272;SDS011;54190;49.770;9.250;2022-11-27T07:11:01;10.53;;;7.33;;
67272;SDS011;54190;49.770;9.250;2022-11-27T07:13:31;13.23;;;7.20;;
67272;SDS011;54190;49.770;9.250;2022-11-27T07:16:00;11.43;;;7.37;;
67272;SDS011;54190;49.770;9.250;2022-11-27T07:18:27;14.00;;;7.50;;
67272;SDS011;54190;49.770;9.250;2022-11-27T07:20:54;10.87;;;6.67;;
67272;SDS011;54190;49.770;9.250;2022-11-27T07:23:20;11.60;;;8.17;;
67272;SDS011;54190;49.770;9.250;2022-11-27T07:25:46;11.07;;;7.17;;
67272;SDS011;54190;49.770;9.250;2022-11-27T07:28:12;11.23;;;7.10;;
67272;SDS011;54190;49.770;9.250;2022-11-27T07:30:37;12.33;;;7.23;;
67272;SDS011;54190;49.770;9.250;2022-11-27T07:33:03;11.97;;;7.50;;
67272;SDS011;54190;49.770;9.250;2022-11-27T07:35:29;16.53;;;11.10;;
67272;SDS011;54190;49.770;9.250;2022-11-27T07:37:54;19.40;;;11.43;;
67272;SDS011;54190;49.770;9.250;2022-11-27T07:40:20;14.07;;;8.90;;
67272;SDS011;54190;49.770;9.250;2022-11-27T07:42:46;18.97;;;8.27;;
67272;SDS011;54190;49.770;9.250;2022-11-27T07:45:11;10.60;;;7.57;;
67272;SDS011;54190;49.770;9.250;2022-11-27T07:47:37;18.23;;;7.00;;
67272;SDS011;54190;49.770;9.250;2022-11-27T07:50:04;13.23;;;7.27;;
67272;SDS011;54190;49.770;9.250;2022-11-27T07:52:33;10.70;;;7.20;;
67272;SDS011;54190;49.770;9.250;2022-11-27T07:54:59;12.60;;;8.40;;
67272;SDS011;54190;49.770;9.250;2022-11-27T07:57:25;11.10;;;6.93;;
67272;SDS011;54190;49.770;9.250;2022-11-27T07:59:51;12.20;;;7.90;;
67272;SDS011;54190;49.770;9.250;2022-11-27T08:02:17;11.87;;;8.17;;
67272;SDS011;54190;49.770;9.250;2022-11-27T08:04:43;11.67;;;6.97;;
67272;SDS011;54190;49.770;9.250;2022-11-27T08:07:08;13.30;;;8.10;;
67272;SDS011;54190;49.770;9.250;2022-11-27T08:09:34;13.13;;;8.40;;
67272;SDS011;54190;49.770;9.250;2022-11-27T08:12:00;93.73;;;48.17;;
67272;SDS011;54190;49.770;9.250;2022-11-27T08:14:26;83.53;;;35.57;;
67272;SDS011;54190;49.770;9.250;2022-11-27T08:16:51;40.03;;;20.47;;
67272;SDS011;54190;49.770;9.250;2022-11-27T08:19:17;48.60;;;26.60;;
67272;SDS011;54190;49.770;9.250;2022-11-27T08:21:42;96.37;;;44.73;;
67272;SDS011;54190;49.770;9.250;2022-11-27T08:24:08;26.10;;;16.10;;
67272;SDS011;54190;49.770;9.250;2022-11-27T08:26:34;13.90;;;8.87;;
67272;SDS011;54190;49.770;9.250;2022-11-27T08:28:59;20.97;;;13.50;;
67272;SDS011;54190;49.770;9.250;2022-11-27T08:31:25;17.83;;;9.30;;
67272;SDS011;54190;49.770;9.250;2022-11-27T08:33:51;15.87;;;10.40;;
67272;SDS011;54190;49.770;9.250;2022-11-27T08:36:16;17.80;;;12.37;;
67272;SDS011;54190;49.770;9.250;2022-11-27T08:38:42;17.43;;;11.20;;
67272;SDS011;54190;49.770;9.250;2022-11-27T08:41:08;17.40;;;10.53;;
67272;SDS011;54190;49.770;9.250;2022-11-27T08:43:34;17.03;;;9.63;;
67272;SDS011;54190;49.770;9.250;2022-11-27T08:46:03;17.13;;;8.23;;
67272;SDS011;54190;49.770;9.250;2022-11-27T08:48:29;9.50;;;6.83;;
67272;SDS011;54190;49.770;9.250;2022-11-27T08:50:55;15.63;;;8.20;;
67272;SDS011;54190;49.770;9.250;2022-11-27T08:53:20;12.17;;;7.10;;
67272;SDS011;54190;49.770;9.250;2022-11-27T08:55:46;12.73;;;7.60;;
67272;SDS011;54190;49.770;9.250;2022-11-27T08:58:12;15.90;;;7.67;;
67272;SDS011;54190;49.770;9.250;2022-11-27T09:00:38;14.53;;;7.20;;
67272;SDS011;54190;49.770;9.250;2022-11-27T09:03:04;14.00;;;8.07;;
67272;SDS011;54190;49.770;9.250;2022-11-27T09:05:30;11.77;;;7.50;;
67272;SDS011;54190;49.770;9.250;2022-11-27T09:07:56;12.70;;;7.90;;
67272;SDS011;54190;49.770;9.250;2022-11-27T09:10:24;14.50;;;8.07;;
67272;SDS011;54190;49.770;9.250;2022-11-27T09:12:50;12.23;;;7.50;;
67272;SDS011;54190;49.770;9.250;2022-11-27T09:15:16;11.93;;;7.37;;
67272;SDS011;54190;49.770;9.250;2022-11-27T09:17:42;12.07;;;7.70;;
67272;SDS011;54190;49.770;9.250;2022-11-27T09:20:08;15.23;;;8.37;;
67272;SDS011;54190;49.770;9.250;2022-11-27T09:22:35;12.77;;;8.77;;
67272;SDS011;54190;49.770;9.250;2022-11-27T09:25:01;12.80;;;7.63;;
67272;SDS011;54190;49.770;9.250;2022-11-27T09:27:27;12.57;;;7.47;;
67272;SDS011;54190;49.770;9.250;2022-11-27T09:29:53;12.53;;;8.47;;
67272;SDS011;54190;49.770;9.250;2022-11-27T09:32:19;12.30;;;7.50;;
67272;SDS011;54190;49.770;9.250;2022-11-27T09:34:46;11.70;;;7.70;;
67272;SDS011;54190;49.770;9.250;2022-11-27T09:37:12;12.00;;;7.90;;
67272;SDS011;54190;49.770;9.250;2022-11-27T09:39:38;11.43;;;7.27;;
67272;SDS011;54190;49.770;9.250;2022-11-27T09:42:04;12.17;;;8.00;;
67272;SDS011;54190;49.770;9.250;2022-11-27T09:44:37;14.60;;;9.07;;
67272;SDS011;54190;49.770;9.250;2022-11-27T09:47:18;18.67;;;10.87;;
67272;SDS011;54190;49.770;9.250;2022-11-27T09:50:02;13.90;;;8.37;;
67272;SDS011;54190;49.770;9.250;2022-11-27T09:52:40;14.90;;;8.33;;
67272;SDS011;54190;49.770;9.250;2022-11-27T09:55:20;13.77;;;8.17;;
67272;SDS011;54190;49.770;9.250;2022-11-27T09:58:09;12.33;;;8.10;;
67272;SDS011;54190;49.770;9.250;2022-11-27T10:00:44;13.13;;;8.50;;
67272;SDS011;54190;49.770;9.250;2022-11-27T10:03:12;12.60;;;8.37;;
67272;SDS011;54190;49.770;9.250;2022-11-27T10:05:43;12.83;;;7.13;;
67272;SDS011;54190;49.770;9.250;2022-11-27T10:13:43;13.20;;;7.83;;
67272;SDS011;54190;49.770;9.250;2022-11-27T10:16:32;13.87;;;7.73;;
67272;SDS011;54190;49.770;9.250;2022-11-27T10:21:56;12.80;;;7.73;;
67272;SDS011;54190;49.770;9.250;2022-11-27T10:24:27;10.53;;;7.40;;
67272;SDS011;54190;49.770;9.250;2022-11-27T10:27:01;13.37;;;7.73;;
67272;SDS011;54190;49.770;9.250;2022-11-27T10:29:44;20.80;;;12.00;;
67272;SDS011;54190;49.770;9.250;2022-11-27T10:32:17;22.93;;;16.73;;
67272;SDS011;54190;49.770;9.250;2022-11-27T10:37:21;14.13;;;8.90;;
67272;SDS011;54190;49.770;9.250;2022-11-27T10:40:07;10.23;;;7.80;;
67272;SDS011;54190;49.770;9.250;2022-11-27T10:42:49;10.23;;;6.90;;
67272;SDS011;54190;49.770;9.250;2022-11-27T10:45:18;12.07;;;8.80;;
67272;SDS011;54190;49.770;9.250;2022-11-27T10:48:04;13.07;;;7.80;;
67272;SDS011;54190;49.770;9.250;2022-11-27T10:50:30;13.47;;;8.53;;
67272;SDS011;54190;49.770;9.250;2022-11-27T10:53:00;11.33;;;7.63;;
67272;SDS011;54190;49.770;9.250;2022-11-27T11:01:03;14.80;;;8.40;;
67272;SDS011;54190;49.770;9.250;2022-11-27T11:03:34;13.43;;;8.50;;
67272;SDS011;54190;49.770;9.250;2022-11-27T11:06:01;11.80;;;7.40;;
67272;SDS011;54190;49.770;9.250;2022-11-27T11:08:30;14.03;;;9.53;;
67272;SDS011;54190;49.770;9.250;2022-11-27T11:13:28;13.33;;;9.10;;
67272;SDS011;54190;49.770;9.250;2022-11-27T11:16:25;13.93;;;9.33;;
67272;SDS011;54190;49.770;9.250;2022-11-27T11:18:54;13.50;;;7.87;;
67272;SDS011;54190;49.770;9.250;2022-11-27T11:21:26;11.53;;;8.20;;
67272;SDS011;54190;49.770;9.250;2022-11-27T11:26:27;10.50;;;7.30;;
67272;SDS011;54190;49.770;9.250;2022-11-27T11:28:57;12.03;;;7.50;;
67272;SDS011;54190;49.770;9.250;2022-11-27T11:31:42;12.67;;;8.53;;
67272;SDS011;54190;49.770;9.250;2022-11-27T11:36:54;13.33;;;7.70;;
67272;SDS011;54190;49.770;9.250;2022-11-27T11:39:23;10.23;;;7.47;;
67272;SDS011;54190;49.770;9.250;2022-11-27T11:41:50;10.40;;;7.30;;
67272;SDS011;54190;49.770;9.250;2022-11-27T11:44:23;11.23;;;7.40;;
67272;SDS011;54190;49.770;9.250;2022-11-27T11:46:55;12.40;;;7.47;;
67272;SDS011;54190;49.770;9.250;2022-11-27T11:54:23;9.73;;;6.53;;
67272;SDS011;54190;49.770;9.250;2022-11-27T11:56:57;10.60;;;7.17;;
67272;SDS011;54190;49.770;9.250;2022-11-27T12:05:00;11.23;;;7.87;;
67272;SDS011;54190;49.770;9.250;2022-11-27T12:10:22;11.50;;;8.10;;
67272;SDS011;54190;49.770;9.250;2022-11-27T12:16:05;10.13;;;6.63;;
67272;SDS011;54190;49.770;9.250;2022-11-27T12:22:06;8.97;;;6.60;;
67272;SDS011;54190;49.770;9.250;2022-11-27T12:24:39;8.33;;;6.00;;
67272;SDS011;54190;49.770;9.250;2022-11-27T12:30:29;9.97;;;6.87;;
67272;SDS011;54190;49.770;9.250;2022-11-27T12:43:57;10.80;;;6.80;;
67272;SDS011;54190;49.770;9.250;2022-11-27T12:46:29;8.20;;;6.33;;
67272;SDS011;54190;49.770;9.250;2022-11-27T12:49:14;9.13;;;6.23;;
67272;SDS011;54190;49.770;9.250;2022-11-27T12:51:51;9.90;;;7.10;;
67272;SDS011;54190;49.770;9.250;2022-11-27T12:54:21;9.90;;;7.23;;
67272;SDS011;54190;49.770;9.250;2022-11-27T12:56:59;10.53;;;7.70;;
67272;SDS011;54190;49.770;9.250;2022-11-27T13:02:34;10.90;;;7.50;;
67272;SDS011;54190;49.770;9.250;2022-11-27T13:05:17;13.60;;;8.80;;
67272;SDS011;54190;49.770;9.250;2022-11-27T13:07:54;13.87;;;9.20;;
67272;SDS011;54190;49.770;9.250;2022-11-27T13:10:29;22.97;;;11.13;;
67272;SDS011;54190;49.770;9.250;2022-11-27T13:13:19;16.00;;;9.07;;
67272;SDS011;54190;49.770;9.250;2022-11-27T13:16:04;17.27;;;9.53;;
67272;SDS011;54190;49.770;9.250;2022-11-27T13:18:44;12.90;;;8.63;;
67272;SDS011;54190;49.770;9.250;2022-11-27T13:21:12;13.67;;;9.00;;
67272;SDS011;54190;49.770;9.250;2022-11-27T13:23:41;12.30;;;9.43;;
67272;SDS011;54190;49.770;9.250;2022-11-27T13:26:11;13.27;;;8.70;;
67272;SDS011;54190;49.770;9.250;2022-11-27T13:28:51;12.00;;;8.53;;
67272;SDS011;54190;49.770;9.250;2022-11-27T13:31:26;13.53;;;9.30;;
67272;SDS011;54190;49.770;9.250;2022-11-27T13:34:03;14.43;;;8.53;;
67272;SDS011;54190;49.770;9.250;2022-11-27T13:36:38;13.03;;;9.50;;
67272;SDS011;54190;49.770;9.250;2022-11-27T13:39:17;17.50;;;10.50;;
67272;SDS011;54190;49.770;9.250;2022-11-27T13:41:47;14.00;;;9.87;;
67272;SDS011;54190;49.770;9.250;2022-11-27T13:44:26;16.10;;;10.60;;
67272;SDS011;54190;49.770;9.250;2022-11-27T13:46:54;15.83;;;10.30;;
67272;SDS011;54190;49.770;9.250;2022-11-27T13:49:33;14.47;;;9.20;;
67272;SDS011;54190;49.770;9.250;2022-11-27T13:52:10;14.63;;;9.40;;
67272;SDS011;54190;49.770;9.250;2022-11-27T13:54:38;16.20;;;10.30;;
67272;SDS011;54190;49.770;9.250;2022-11-27T13:57:16;15.00;;;9.60;;
67272;SDS011;54190;49.770;9.250;2022-11-27T14:00:02;14.23;;;10.13;;
67272;SDS011;54190;49.770;9.250;2022-11-27T14:05:09;14.87;;;10.30;;
67272;SDS011;54190;49.770;9.250;2022-11-27T14:07:41;15.13;;;10.43;;
67272;SDS011;54190;49.770;9.250;2022-11-27T14:10:14;14.40;;;10.17;;
67272;SDS011;54190;49.770;9.250;2022-11-27T14:13:07;15.00;;;10.30;;
67272;SDS011;54190;49.770;9.250;2022-11-27T14:15:34;17.37;;;10.90;;
67272;SDS011;54190;49.770;9.250;2022-11-27T14:18:17;16.83;;;9.90;;
67272;SDS011;54190;49.770;9.250;2022-11-27T14:20:46;17.00;;;10.77;;
67272;SDS011;54190;49.770;9.250;2022-11-27T14:23:25;15.10;;;10.27;;
67272;SDS011;54190;49.770;9.250;2022-11-27T14:26:00;15.43;;;11.03;;
67272;SDS011;54190;49.770;9.250;2022-11-27T14:28:26;15.10;;;9.80;;
67272;SDS011;54190;49.770;9.250;2022-11-27T14:31:01;15.77;;;10.63;;
67272;SDS011;54190;49.770;9.250;2022-11-27T14:33:31;22.20;;;12.57;;
67272;SDS011;54190;49.770;9.250;2022-11-27T14:36:02;18.30;;;12.13;;
67272;SDS011;54190;49.770;9.250;2022-11-27T14:38:31;13.97;;;10.13;;
67272;SDS011;54190;49.770;9.250;2022-11-27T14:41:17;15.63;;;10.23;;
67272;SDS011;54190;49.770;9.250;2022-11-27T14:43:47;16.97;;;12.23;;
67272;SDS011;54190;49.770;9.250;2022-11-27T14:46:23;15.67;;;10.57;;
67272;SDS011;54190;49.770;9.250;2022-11-27T14:48:49;16.43;;;11.10;;
67272;SDS011;54190;49.770;9.250;2022-11-27T14:51:20;17.07;;;11.60;;
67272;SDS011;54190;49.770;9.250;2022-11-27T14:54:00;15.50;;;10.87;;
67272;SDS011;54190;49.770;9.250;2022-11-27T14:56:45;14.50;;;10.13;;
67272;SDS011;54190;49.770;9.250;2022-11-27T14:59:16;15.17;;;11.23;;
67272;SDS011;54190;49.770;9.250;2022-11-27T15:01:43;13.67;;;10.00;;
67272;SDS011;54190;49.770;9.250;2022-11-27T15:04:25;12.63;;;10.30;;
67272;SDS011;54190;49.770;9.250;2022-11-27T15:06:59;14.97;;;9.20;;
67272;SDS011;54190;49.770;9.250;2022-11-27T15:09:26;12.73;;;9.37;;
67272;SDS011;54190;49.770;9.250;2022-11-27T15:11:55;11.70;;;8.47;;
67272;SDS011;54190;49.770;9.250;2022-11-27T15:14:25;14.03;;;9.33;;
67272;SDS011;54190;49.770;9.250;2022-11-27T15:16:52;12.00;;;9.10;;
67272;SDS011;54190;49.770;9.250;2022-11-27T15:19:26;12.27;;;8.50;;
67272;SDS011;54190;49.770;9.250;2022-11-27T15:21:55;12.10;;;8.90;;
67272;SDS011;54190;49.770;9.250;2022-11-27T15:24:29;13.13;;;9.07;;
67272;SDS011;54190;49.770;9.250;2022-11-27T15:27:43;11.53;;;8.67;;
67272;SDS011;54190;49.770;9.250;2022-11-27T15:32:18;12.97;;;9.63;;
67272;SDS011;54190;49.770;9.250;2022-11-27T15:34:44;12.13;;;8.80;;
67272;SDS011;54190;49.770;9.250;2022-11-27T15:39:45;12.00;;;8.30;;
67272;SDS011;54190;49.770;9.250;2022-11-27T15:42:18;12.30;;;8.60;;
67272;SDS011;54190;49.770;9.250;2022-11-27T15:44:46;12.20;;;9.00;;
67272;SDS011;54190;49.770;9.250;2022-11-27T15:47:28;12.30;;;8.60;;
67272;SDS011;54190;49.770;9.250;2022-11-27T15:49:56;10.73;;;7.73;;
67272;SDS011;54190;49.770;9.250;2022-11-27T15:52:23;13.30;;;8.63;;
67272;SDS011;54190;49.770;9.250;2022-11-27T15:54:49;14.03;;;9.10;;
67272;SDS011;54190;49.770;9.250;2022-11-27T15:57:15;11.87;;;8.23;;
67272;SDS011;54190;49.770;9.250;2022-11-27T15:59:41;10.90;;;7.77;;
67272;SDS011;54190;49.770;9.250;2022-11-27T16:02:08;10.13;;;7.70;;
67272;SDS011;54190;49.770;9.250;2022-11-27T16:04:35;13.27;;;9.03;;
67272;SDS011;54190;49.770;9.250;2022-11-27T16:07:00;11.57;;;8.63;;
67272;SDS011;54190;49.770;9.250;2022-11-27T16:09:26;14.67;;;9.10;;
67272;SDS011;54190;49.770;9.250;2022-11-27T16:11:52;11.90;;;8.37;;
67272;SDS011;54190;49.770;9.250;2022-11-27T16:14:18;13.13;;;9.60;;
67272;SDS011;54190;49.770;9.250;2022-11-27T16:16:43;13.43;;;9.10;;
67272;SDS011;54190;49.770;9.250;2022-11-27T16:19:09;12.10;;;8.70;;
67272;SDS011;54190;49.770;9.250;2022-11-27T16:21:36;14.50;;;8.60;;
67272;SDS011;54190;49.770;9.250;2022-11-27T16:24:06;12.73;;;9.30;;
67272;SDS011;54190;49.770;9.250;2022-11-27T16:26:34;16.27;;;9.57;;
67272;SDS011;54190;49.770;9.250;2022-11-27T16:29:01;14.60;;;9.33;;
67272;SDS011;54190;49.770;9.250;2022-11-27T16:31:26;11.80;;;7.80;;
67272;SDS011;54190;49.770;9.250;2022-11-27T16:33:52;13.00;;;9.60;;